createdAt,value
2024-01-11T00:01:55.996Z,-5.40
2024-01-11T00:04:23.276Z,-5.40
2024-01-11T00:06:51.952Z,-5.50
2024-01-11T00:09:19.041Z,-5.50
2024-01-11T00:11:46.119Z,-5.50
2024-01-11T00:14:13.328Z,-5.40
2024-01-11T00:16:40.542Z,-5.40
2024-01-11T00:19:07.639Z,-5.40
2024-01-11T00:22:18.093Z,-5.40
2024-01-11T00:24:45.312Z,-5.40
2024-01-11T00:27:15.542Z,-5.40
2024-01-11T00:29:42.579Z,-5.40
2024-01-11T00:32:09.743Z,-5.40
2024-01-11T00:34:37.318Z,-5.40
2024-01-11T00:37:06.947Z,-5.40
2024-01-11T00:39:34.048Z,-5.40
2024-01-11T00:42:01.061Z,-5.40
2024-01-11T00:44:28.160Z,-5.40
2024-01-11T00:50:14.625Z,-5.40
2024-01-11T00:52:41.793Z,-5.50
2024-01-11T00:55:09.137Z,-5.50
2024-01-11T00:57:36.218Z,-5.50
2024-01-11T01:00:03.977Z,-5.50
2024-01-11T01:02:31.158Z,-5.50
2024-01-11T01:04:58.315Z,-5.50
2024-01-11T01:07:25.551Z,-5.50
2024-01-11T01:09:52.643Z,-5.50
2024-01-11T01:12:53.142Z,-5.50
2024-01-11T01:15:20.571Z,-5.50
2024-01-11T01:21:08.008Z,-5.50
2024-01-11T01:23:35.355Z,-5.50
2024-01-11T01:26:10.092Z,-5.50
2024-01-11T01:28:37.598Z,-5.50
2024-01-11T01:31:04.933Z,-5.50
2024-01-11T01:33:32.206Z,-5.50
2024-01-11T01:36:24.515Z,-5.50
2024-01-11T01:40:08.839Z,-5.50
2024-01-11T01:42:36.003Z,-5.50
2024-01-11T01:48:57.029Z,-5.60
2024-01-11T01:51:29.825Z,-5.60
2024-01-11T01:54:00.792Z,-5.60
2024-01-11T01:56:28.504Z,-5.60
2024-01-11T01:58:59.346Z,-5.60
2024-01-11T02:01:28.734Z,-5.60
2024-01-11T02:03:56.521Z,-5.60
2024-01-11T02:06:26.819Z,-5.60
2024-01-11T02:08:59.304Z,-5.60
2024-01-11T02:11:26.663Z,-5.70
2024-01-11T02:17:21.847Z,-5.70
2024-01-11T02:19:49.090Z,-5.70
2024-01-11T02:23:09.448Z,-5.80
2024-01-11T02:25:36.607Z,-5.90
2024-01-11T02:28:04.113Z,-5.90
2024-01-11T02:30:31.312Z,-5.90
2024-01-11T02:32:59.465Z,-6.00
2024-01-11T02:35:27.537Z,-6.10
2024-01-11T02:37:55.705Z,-6.10
2024-01-11T02:40:23.675Z,-6.10
2024-01-11T02:42:50.700Z,-6.20
2024-01-11T02:48:34.711Z,-6.20
2024-01-11T02:51:01.756Z,-6.20
2024-01-11T02:53:39.675Z,-6.20
2024-01-11T02:56:08.909Z,-6.20
2024-01-11T02:58:35.984Z,-6.20
2024-01-11T03:01:36.670Z,-6.30
2024-01-11T03:04:03.961Z,-6.30
2024-01-11T03:07:01.889Z,-6.20
2024-01-11T03:09:31.884Z,-6.20
2024-01-11T03:15:28.907Z,-6.10
2024-01-11T03:18:08.431Z,-6.10
2024-01-11T03:20:35.727Z,-6.10
2024-01-11T03:23:03.535Z,-6.10
2024-01-11T03:28:47.550Z,-6.20
2024-01-11T03:31:14.662Z,-6.20
2024-01-11T03:36:31.683Z,-6.30
2024-01-11T03:38:59.563Z,-6.30
2024-01-11T03:44:43.776Z,-6.30
2024-01-11T03:47:11.033Z,-6.40
2024-01-11T03:52:45.163Z,-6.50
2024-01-11T03:55:12.419Z,-6.50
2024-01-11T03:57:39.510Z,-6.50
2024-01-11T04:00:11.978Z,-6.50
2024-01-11T04:02:39.476Z,-6.50
2024-01-11T04:05:07.034Z,-6.60
2024-01-11T04:07:34.221Z,-6.60
2024-01-11T04:10:04.181Z,-6.50
2024-01-11T04:12:32.646Z,-6.50
2024-01-11T04:15:01.941Z,-6.50
2024-01-11T04:17:29.424Z,-6.60
2024-01-11T04:19:56.560Z,-6.60
2024-01-11T04:22:23.965Z,-6.60
2024-01-11T04:28:07.610Z,-6.60
2024-01-11T04:30:34.723Z,-6.70
2024-01-11T04:33:25.395Z,-6.70
2024-01-11T04:35:52.610Z,-6.70
2024-01-11T04:38:19.874Z,-6.70
2024-01-11T04:40:47.139Z,-6.70
2024-01-11T04:43:14.290Z,-6.60
2024-01-11T04:45:41.534Z,-6.60
2024-01-11T04:48:08.809Z,-6.50
2024-01-11T04:50:37.640Z,-6.60
2024-01-11T04:53:04.822Z,-6.60
2024-01-11T04:59:14.661Z,-6.60
2024-01-11T05:02:15.013Z,-6.60
2024-01-11T05:08:33.951Z,-6.60
2024-01-11T05:11:01.345Z,-6.50
2024-01-11T05:13:29.976Z,-6.50
2024-01-11T05:22:29.327Z,-6.50
2024-01-11T05:24:56.364Z,-6.50
2024-01-11T05:30:39.965Z,-6.40
2024-01-11T05:33:07.167Z,-6.30
2024-01-11T05:35:34.503Z,-6.30
2024-01-11T05:38:07.529Z,-6.20
2024-01-11T05:40:34.705Z,-6.10
2024-01-11T05:43:01.683Z,-6.10
2024-01-11T05:45:36.181Z,-5.90
2024-01-11T05:51:25.031Z,-5.70
2024-01-11T05:53:52.158Z,-5.50
2024-01-11T05:56:23.832Z,-5.50
2024-01-11T05:59:16.123Z,-5.30
2024-01-11T06:01:44.122Z,-5.30
2024-01-11T06:04:11.153Z,-5.20
2024-01-11T06:06:38.295Z,-5.10
2024-01-11T06:12:26.512Z,-4.90
2024-01-11T06:15:19.395Z,-4.80
2024-01-11T06:17:46.504Z,-4.80
2024-01-11T06:20:37.471Z,-4.70
2024-01-11T06:23:05.072Z,-4.60
2024-01-11T06:25:32.162Z,-4.50
2024-01-11T06:27:59.457Z,-4.50
2024-01-11T06:30:26.738Z,-4.40
2024-01-11T06:32:53.952Z,-4.40
2024-01-11T06:35:21.649Z,-4.30
2024-01-11T06:38:21.056Z,-4.30
2024-01-11T06:40:49.773Z,-4.20
2024-01-11T06:43:17.062Z,-4.20
2024-01-11T06:45:52.172Z,-4.10
2024-01-11T06:49:06.048Z,-4.10
2024-01-11T06:51:33.175Z,-4.00
2024-01-11T06:54:02.254Z,-3.90
2024-01-11T06:56:32.707Z,-3.90
2024-01-11T06:58:59.857Z,-3.90
2024-01-11T07:01:27.128Z,-3.80
2024-01-11T07:03:54.317Z,-3.80
2024-01-11T07:06:42.298Z,-3.80
2024-01-11T07:09:09.580Z,-3.70
2024-01-11T07:14:53.602Z,-3.70
2024-01-11T07:17:20.821Z,-3.60
2024-01-11T07:19:47.945Z,-3.50
2024-01-11T07:22:15.088Z,-3.50
2024-01-11T07:24:43.727Z,-3.50
2024-01-11T07:27:10.850Z,-3.40
2024-01-11T07:29:38.089Z,-3.40
2024-01-11T07:32:05.823Z,-3.40
2024-01-11T07:35:21.461Z,-3.30
2024-01-11T07:41:09.176Z,-3.20
2024-01-11T07:43:45.564Z,-3.20
2024-01-11T07:46:26.174Z,-3.20
2024-01-11T07:49:00.719Z,-3.10
2024-01-11T07:51:28.800Z,-3.10
2024-01-11T07:53:56.009Z,-3.10
2024-01-11T07:56:23.475Z,-3.00
2024-01-11T07:58:50.618Z,-3.00
2024-01-11T08:01:18.228Z,-3.00
2024-01-11T08:03:49.115Z,-2.90
2024-01-11T08:06:47.660Z,-2.90
2024-01-11T08:09:27.720Z,-2.90
2024-01-11T08:14:22.939Z,-2.80
2024-01-11T08:16:50.049Z,-2.70
2024-01-11T08:19:18.032Z,-2.70
2024-01-11T08:21:45.529Z,-2.60
2024-01-11T08:24:39.547Z,-2.60
2024-01-11T08:27:07.097Z,-2.50
2024-01-11T08:29:34.612Z,-2.50
2024-01-11T08:32:15.222Z,-2.50
2024-01-11T08:34:51.548Z,-2.50
2024-01-11T08:37:21.001Z,-2.40
2024-01-11T08:39:48.097Z,-2.40
2024-01-11T08:42:17.876Z,-2.40
2024-01-11T08:44:45.934Z,-2.30
2024-01-11T08:47:15.539Z,-2.30
2024-01-11T08:49:46.966Z,-2.20
2024-01-11T08:52:14.090Z,-2.20
2024-01-11T08:54:41.223Z,-2.10
2024-01-11T08:57:08.471Z,-2.10
2024-01-11T08:59:35.826Z,-2.10
2024-01-11T09:02:13.520Z,-2.00
2024-01-11T09:05:09.534Z,-2.00
2024-01-11T09:15:25.602Z,-1.80
2024-01-11T09:17:52.773Z,-1.70
2024-01-11T09:20:20.079Z,-1.70
2024-01-11T09:22:49.478Z,-1.60
2024-01-11T09:25:16.705Z,-1.60
2024-01-11T09:27:43.769Z,-1.50
2024-01-11T09:30:11.439Z,-1.40
2024-01-11T09:32:45.550Z,-1.40
2024-01-11T09:35:15.856Z,-1.30
2024-01-11T09:37:47.703Z,-1.30
2024-01-11T09:40:18.775Z,-1.20
2024-01-11T09:42:45.991Z,-1.20
2024-01-11T09:45:19.976Z,-1.10
2024-01-11T09:47:49.244Z,-1.10
2024-01-11T09:50:21.270Z,-1.00
2024-01-11T09:52:50.316Z,-0.90
2024-01-11T09:58:37.840Z,-0.80
2024-01-11T10:01:10.670Z,-0.80
2024-01-11T10:03:41.698Z,-0.70
2024-01-11T10:06:35.617Z,-0.70
2024-01-11T10:09:04.837Z,-0.60
2024-01-11T10:11:32.040Z,-0.60
2024-01-11T10:14:24.434Z,-0.50
2024-01-11T10:20:35.664Z,-0.40
2024-01-11T10:23:04.224Z,-0.20
2024-01-11T10:25:31.333Z,-0.20
2024-01-11T10:31:19.157Z,-0.10
2024-01-11T10:33:47.133Z,0.00
2024-01-11T10:38:50.465Z,0.10
2024-01-11T10:41:21.493Z,0.10
2024-01-11T10:43:50.892Z,0.10
2024-01-11T10:46:23.614Z,0.20
2024-01-11T10:48:57.223Z,0.30
2024-01-11T10:51:26.785Z,0.30
2024-01-11T10:53:55.178Z,0.30
2024-01-11T10:56:23.827Z,0.40
2024-01-11T11:01:56.787Z,0.40
2024-01-11T11:04:24.848Z,0.50
2024-01-11T11:10:10.566Z,0.60
2024-01-11T11:12:40.210Z,0.60
2024-01-11T11:15:09.934Z,0.60
2024-01-11T11:17:37.990Z,0.70
2024-01-11T11:20:09.249Z,0.70
2024-01-11T11:25:58.705Z,0.70
2024-01-11T11:28:27.374Z,0.70
2024-01-11T11:30:54.809Z,0.70
2024-01-11T11:33:25.352Z,0.80
2024-01-11T11:39:03.928Z,0.80
2024-01-11T11:41:34.287Z,0.90
2024-01-11T11:44:22.906Z,0.90
2024-01-11T11:47:11.135Z,0.90
2024-01-11T11:50:14.984Z,0.90
2024-01-11T11:52:45.026Z,0.90
2024-01-11T11:55:14.046Z,0.90
2024-01-11T11:57:45.054Z,1.00
2024-01-11T12:00:37.394Z,0.90
2024-01-11T12:03:12.048Z,0.90
2024-01-11T12:06:09.827Z,0.90
2024-01-11T12:11:49.363Z,1.00
2024-01-11T12:14:22.125Z,1.00
2024-01-11T12:16:58.685Z,1.00
2024-01-11T12:19:26.915Z,1.10
2024-01-11T12:21:54.206Z,1.10
2024-01-11T12:24:22.919Z,1.10
2024-01-11T12:26:56.951Z,1.10
2024-01-11T12:29:24.971Z,1.10
2024-01-11T12:31:52.874Z,1.10
2024-01-11T12:34:20.469Z,1.10
2024-01-11T12:36:48.245Z,1.00
2024-01-11T12:39:17.755Z,1.00
2024-01-11T12:45:01.708Z,1.00
2024-01-11T12:47:46.148Z,1.00
2024-01-11T12:50:13.834Z,1.10
2024-01-11T12:53:22.063Z,1.10
2024-01-11T12:59:10.841Z,1.10
2024-01-11T13:01:41.293Z,1.20
2024-01-11T13:04:11.680Z,1.20
2024-01-11T13:09:42.885Z,1.20
2024-01-11T13:12:09.956Z,1.20
2024-01-11T13:15:07.883Z,1.30
2024-01-11T13:17:35.828Z,1.30
2024-01-11T13:20:03.013Z,1.30
2024-01-11T13:22:30.079Z,1.30
2024-01-11T13:24:57.075Z,1.20
2024-01-11T13:27:24.195Z,1.20
2024-01-11T13:33:12.251Z,1.20
2024-01-11T13:35:41.208Z,1.20
2024-01-11T13:38:12.290Z,1.10
2024-01-11T13:41:06.266Z,1.10
2024-01-11T13:43:35.684Z,1.10
2024-01-11T13:49:46.999Z,1.10
2024-01-11T13:52:14.244Z,1.10
2024-01-11T13:54:41.421Z,1.10
2024-01-11T13:57:16.143Z,1.10
2024-01-11T14:01:06.910Z,1.10
2024-01-11T14:03:34.566Z,1.10
2024-01-11T14:06:19.167Z,1.10
2024-01-11T14:08:46.613Z,1.10
2024-01-11T14:11:13.729Z,1.10
2024-01-11T14:13:41.478Z,1.10
2024-01-11T14:16:08.593Z,1.10
2024-01-11T14:18:35.825Z,1.10
2024-01-11T14:21:03.153Z,1.10
2024-01-11T14:23:30.380Z,1.10
2024-01-11T14:25:58.093Z,1.10
2024-01-11T14:28:27.193Z,1.10
2024-01-11T14:30:54.690Z,1.10
2024-01-11T14:33:21.842Z,1.10
2024-01-11T14:35:49.022Z,1.10
2024-01-11T14:38:16.218Z,1.10
2024-01-11T14:40:43.592Z,1.10
2024-01-11T14:43:11.014Z,1.10
2024-01-11T14:45:38.198Z,1.10
2024-01-11T14:48:05.949Z,1.10
2024-01-11T14:50:35.209Z,1.10
2024-01-11T14:53:04.716Z,1.10
2024-01-11T14:55:32.078Z,1.10
2024-01-11T14:58:01.188Z,1.20
2024-01-11T15:00:29.620Z,1.20
2024-01-11T15:02:56.783Z,1.10
2024-01-11T15:05:23.900Z,1.20
2024-01-11T15:07:50.893Z,1.20
2024-01-11T15:10:18.841Z,1.20
2024-01-11T15:12:46.322Z,1.20
2024-01-11T15:15:13.343Z,1.10
2024-01-11T15:17:40.604Z,1.10
2024-01-11T15:20:08.814Z,1.10
2024-01-11T15:22:36.020Z,1.10
2024-01-11T15:25:28.490Z,1.10
2024-01-11T15:28:15.910Z,1.10
2024-01-11T15:30:43.095Z,1.10
2024-01-11T15:33:10.853Z,1.10
2024-01-11T15:35:38.560Z,1.10
2024-01-11T15:38:05.732Z,1.10
2024-01-11T15:41:49.266Z,1.10
2024-01-11T15:44:16.509Z,1.10
2024-01-11T15:46:43.744Z,1.10
2024-01-11T15:49:12.999Z,1.10
2024-01-11T15:51:43.637Z,1.10
2024-01-11T15:57:27.747Z,1.10
2024-01-11T15:59:54.990Z,1.10
2024-01-11T16:02:22.903Z,1.10
2024-01-11T16:04:49.966Z,1.10
2024-01-11T16:07:17.221Z,1.10
2024-01-11T16:09:45.701Z,1.10
2024-01-11T16:12:13.105Z,1.10
2024-01-11T16:14:45.985Z,1.10
2024-01-11T16:17:13.224Z,1.10
2024-01-11T16:19:40.664Z,1.10
2024-01-11T16:22:07.873Z,1.10
2024-01-11T16:24:35.225Z,1.10
2024-01-11T16:27:03.151Z,1.10
2024-01-11T16:29:30.435Z,1.10
2024-01-11T16:31:57.625Z,1.10
2024-01-11T16:34:25.089Z,1.10
2024-01-11T16:40:11.119Z,1.10
2024-01-11T16:42:39.777Z,1.10
2024-01-11T16:46:06.131Z,1.10
2024-01-11T16:49:06.948Z,1.10
2024-01-11T16:52:00.298Z,1.10
2024-01-11T16:54:30.387Z,1.10
2024-01-11T16:56:57.424Z,1.10
2024-01-11T16:59:26.559Z,1.10
2024-01-11T17:06:56.168Z,1.10
2024-01-11T17:09:23.330Z,1.10
2024-01-11T17:11:55.140Z,1.10
2024-01-11T17:14:22.233Z,1.10
2024-01-11T17:16:49.285Z,1.10
2024-01-11T17:19:16.478Z,1.10
2024-01-11T17:21:43.820Z,1.10
2024-01-11T17:24:10.921Z,1.10
2024-01-11T17:26:38.218Z,1.10
2024-01-11T17:29:05.481Z,1.10
2024-01-11T17:31:32.765Z,1.10
2024-01-11T17:34:00.475Z,1.10
2024-01-11T17:41:09.405Z,1.10
2024-01-11T17:43:36.954Z,1.10
2024-01-11T17:46:04.343Z,1.10
2024-01-11T17:48:56.375Z,1.10
2024-01-11T17:51:23.514Z,1.10
2024-01-11T17:53:52.778Z,1.10
2024-01-11T17:56:21.914Z,1.10
2024-01-11T17:58:49.422Z,1.00
2024-01-11T18:01:26.361Z,1.10
2024-01-11T18:03:53.844Z,1.10
2024-01-11T18:06:21.263Z,1.10
2024-01-11T18:08:49.693Z,1.10
2024-01-11T18:11:40.184Z,1.10
2024-01-11T18:14:34.046Z,1.10
2024-01-11T18:17:01.248Z,1.10
2024-01-11T18:19:28.455Z,1.10
2024-01-11T18:21:55.498Z,1.10
2024-01-11T18:25:12.218Z,1.00
2024-01-11T18:27:41.277Z,1.10
2024-01-11T18:30:10.008Z,1.10
2024-01-11T18:32:37.267Z,1.10
2024-01-11T18:35:04.740Z,1.10
2024-01-11T18:37:31.757Z,1.10
2024-01-11T18:40:26.007Z,1.10
2024-01-11T18:42:53.679Z,1.10
2024-01-11T18:45:20.822Z,1.10
2024-01-11T18:47:47.956Z,1.10
2024-01-11T18:53:31.631Z,1.00
2024-01-11T18:56:00.894Z,1.00
2024-01-11T18:58:30.276Z,1.00
2024-01-11T19:00:57.571Z,1.00
2024-01-11T19:03:25.386Z,1.00
2024-01-11T19:05:53.019Z,1.00
2024-01-11T19:08:20.379Z,1.00
2024-01-11T19:10:47.667Z,1.00
2024-01-11T19:13:14.847Z,1.00
2024-01-11T19:15:42.004Z,1.00
2024-01-11T19:18:09.787Z,1.00
2024-01-11T19:20:37.669Z,1.00
2024-01-11T19:23:04.955Z,1.00
2024-01-11T19:25:35.228Z,1.00
2024-01-11T19:28:05.918Z,1.00
2024-01-11T19:33:50.770Z,1.00
2024-01-11T19:39:10.689Z,1.00
2024-01-11T19:41:38.942Z,0.90
2024-01-11T19:44:09.382Z,1.00
2024-01-11T19:46:37.111Z,1.00
2024-01-11T19:49:04.290Z,1.00
2024-01-11T19:51:56.275Z,1.00
2024-01-11T19:54:43.236Z,1.00
2024-01-11T19:57:23.743Z,1.00
2024-01-11T19:59:51.200Z,1.00
2024-01-11T20:02:21.785Z,1.00
2024-01-11T20:04:51.994Z,1.00
2024-01-11T20:07:44.810Z,0.90
2024-01-11T20:10:37.913Z,0.90
2024-01-11T20:13:05.106Z,0.90
2024-01-11T20:15:32.361Z,0.90
2024-01-11T20:17:59.704Z,0.90
2024-01-11T20:20:26.876Z,0.90
2024-01-11T20:22:56.987Z,0.90
2024-01-11T20:25:24.065Z,0.80
2024-01-11T20:27:51.231Z,0.80
2024-01-11T20:30:18.447Z,0.80
2024-01-11T20:32:45.714Z,0.80
2024-01-11T20:35:14.340Z,0.80
2024-01-11T20:37:41.699Z,0.80
2024-01-11T20:40:10.595Z,0.80
2024-01-11T20:42:37.887Z,0.80
2024-01-11T20:45:05.682Z,0.80
2024-01-11T20:47:34.214Z,0.80
2024-01-11T20:50:05.287Z,0.80
2024-01-11T20:52:33.385Z,0.80
2024-01-11T20:55:25.171Z,0.80
2024-01-11T20:58:17.578Z,0.70
2024-01-11T21:03:25.750Z,0.70
2024-01-11T21:05:55.147Z,0.80
2024-01-11T21:08:22.640Z,0.80
2024-01-11T21:10:49.742Z,0.80
2024-01-11T21:13:17.153Z,0.70
2024-01-11T21:15:44.368Z,0.70
2024-01-11T21:18:11.476Z,0.70
2024-01-11T21:23:32.615Z,0.70
2024-01-11T21:26:25.555Z,0.80
2024-01-11T21:28:55.786Z,0.80
2024-01-11T21:31:24.989Z,0.80
2024-01-11T21:33:56.942Z,0.80
2024-01-11T21:36:49.429Z,0.70
2024-01-11T21:39:17.015Z,0.70
2024-01-11T21:41:50.929Z,0.70
2024-01-11T21:44:18.029Z,0.70
2024-01-11T21:46:48.501Z,0.70
2024-01-11T21:49:19.376Z,0.70
2024-01-11T21:51:50.160Z,0.70
2024-01-11T21:54:17.353Z,0.70
2024-01-11T21:56:44.418Z,0.70
2024-01-11T21:59:11.723Z,0.70
2024-01-11T22:01:45.394Z,0.70
2024-01-11T22:04:13.316Z,0.70
2024-01-11T22:07:05.263Z,0.70
2024-01-11T22:09:32.797Z,0.70
2024-01-11T22:12:00.029Z,0.70
2024-01-11T22:14:39.367Z,0.70
2024-01-11T22:17:57.187Z,0.70
2024-01-11T22:23:33.778Z,0.70
2024-01-11T22:26:00.917Z,0.70
2024-01-11T22:28:28.502Z,0.60
2024-01-11T22:30:55.567Z,0.60
2024-01-11T22:34:12.856Z,0.60
2024-01-11T22:36:39.860Z,0.60
2024-01-11T22:39:07.350Z,0.60
2024-01-11T22:41:39.831Z,0.50
2024-01-11T22:44:32.369Z,0.50
2024-01-11T22:47:50.976Z,0.50
2024-01-11T22:50:18.165Z,0.50
2024-01-11T22:52:45.389Z,0.50
2024-01-11T22:55:12.618Z,0.50
2024-01-11T22:57:40.015Z,0.50
2024-01-11T23:00:22.281Z,0.50
2024-01-11T23:02:51.445Z,0.50
2024-01-11T23:05:19.735Z,0.40
2024-01-11T23:07:48.238Z,0.40
2024-01-11T23:10:16.979Z,0.40
2024-01-11T23:12:44.870Z,0.40
2024-01-11T23:15:43.145Z,0.40
2024-01-11T23:21:05.142Z,0.40
2024-01-11T23:23:34.910Z,0.40
2024-01-11T23:26:45.837Z,0.40
2024-01-11T23:29:13.192Z,0.30
2024-01-11T23:31:40.398Z,0.30
2024-01-11T23:34:33.303Z,0.30
2024-01-11T23:37:00.446Z,0.30
2024-01-11T23:39:27.598Z,0.30
2024-01-11T23:41:55.753Z,0.30
2024-01-11T23:44:22.895Z,0.30
2024-01-11T23:46:50.071Z,0.30
2024-01-11T23:49:17.398Z,0.30
2024-01-11T23:55:00.736Z,0.30
2024-01-11T23:57:27.854Z,0.30
2024-01-11T23:59:55.047Z,0.30
